ETHS

Fassberg Airport

Germany
METAR ETHS 151920Z 21002KT 4000 BR FEW015 BKN027 M00/M01 Q0999 GRN
Observed Flight Rules
Dec-15 @ 19:20 UTC (28 minutes ago) Instrument Flight Rules
Wind Visibility Clouds Conditions
210° at 2 knots 4,007 meters
  • Few at 1,500' AGL
  • Broken at 2,700' AGL
  • Mist
Temperatures Readings
Current 0°C / 32°F
Dewpoint -1°C / 30°F
Humidity 93%
Altimeter 29.5" Hg
Pressure 999 hPa
Elevation 88
METAR ETHS 151920Z 21002KT 4000 BR FEW015 BKN027 M00/M01 Q0999 GRN
Observed Flight Rules
Dec-15 @ 19:20 UTC
(28 minutes ago)
IFR
Wind Visibility
210° at 2 knots 4,007 meters
Clouds
  • Few at 1,500' AGL
  • Broken at 2,700' AGL
Conditions
  • Mist
Temperature Dewpoint
0°C / 32°F -1°C / 30°F
Humidity Altimeter Pressure
93% 29.5" Hg 999 hPa